Time;durP1;ratioP1;P1;durP2;ratioP2;P2;SDS_P1;SDS_P2;PMS_P1;PMS_P2;Temp;Humidity;BMP_temperature;BMP_pressure;BME280_temperature;BME280_humidity;BME280_pressure;Samples;Min_cycle;Max_cycle;Signal;HPM_P1;HPM_P2
2022/04/25 00:01:54;;;;;;;17.77;12.20;;;;;;;6.99;100.00;95152.81;5023792;28;20044;-80
2022/04/25 00:04:20;;;;;;;16.43;12.80;;;;;;;6.99;100.00;95158.03;5020209;28;20112;-80
2022/04/25 00:06:46;;;;;;;17.43;13.00;;;;;;;6.94;100.00;95160.31;5007257;28;20140;-80
2022/04/25 00:09:12;;;;;;;19.40;14.10;;;;;;;6.96;100.00;95161.78;5026396;28;20014;-80
2022/04/25 00:11:37;;;;;;;20.37;14.63;;;;;;;6.98;100.00;95159.03;5025957;28;20033;-80
2022/04/25 00:14:05;;;;;;;18.67;14.23;;;;;;;6.98;100.00;95151.19;5012903;28;20033;-79
2022/04/25 00:16:30;;;;;;;19.13;15.20;;;;;;;7.03;100.00;95159.31;5024505;28;20041;-80
2022/04/25 00:18:56;;;;;;;20.33;15.03;;;;;;;6.92;100.00;95155.25;5029787;28;20092;-80
2022/04/25 00:21:22;;;;;;;20.30;15.13;;;;;;;6.93;100.00;95158.69;5027412;28;20032;-79
2022/04/25 00:23:47;;;;;;;19.33;15.07;;;;;;;6.92;100.00;95164.91;5028408;28;20072;-80
2022/04/25 00:26:13;;;;;;;19.00;13.97;;;;;;;6.97;100.00;95166.03;5026732;28;20493;-79
2022/04/25 00:28:39;;;;;;;20.33;15.43;;;;;;;6.97;100.00;95167.81;5028074;28;20032;-79
2022/04/25 00:31:04;;;;;;;19.03;15.30;;;;;;;6.92;100.00;95165.69;5029486;28;20048;-79
2022/04/25 00:33:30;;;;;;;19.30;14.77;;;;;;;6.99;100.00;95171.09;5025311;28;20033;-79
2022/04/25 00:35:56;;;;;;;20.07;14.70;;;;;;;6.95;100.00;95167.19;5026859;28;20037;-80
2022/04/25 00:38:22;;;;;;;22.60;16.30;;;;;;;6.97;100.00;95167.81;5006956;28;20196;-80
2022/04/25 00:40:47;;;;;;;20.87;16.47;;;;;;;6.99;100.00;95174.53;5028558;28;20029;-80
2022/04/25 00:43:13;;;;;;;22.27;15.77;;;;;;;6.90;100.00;95165.03;5008360;28;20449;-79
2022/04/25 00:45:39;;;;;;;20.23;14.80;;;;;;;6.85;100.00;95168.16;5019301;28;20037;-80
2022/04/25 00:48:05;;;;;;;20.07;15.63;;;;;;;6.90;100.00;95174.69;5004960;28;20029;-80
2022/04/25 00:50:31;;;;;;;23.70;17.33;;;;;;;6.93;100.00;95169.94;4979679;28;20029;-79
2022/04/25 00:52:57;;;;;;;22.33;15.87;;;;;;;6.84;100.00;95170.91;4985308;28;20497;-80
2022/04/25 00:55:23;;;;;;;22.43;16.87;;;;;;;6.88;100.00;95168.81;4971229;28;20025;-80
2022/04/25 00:57:52;;;;;;;21.90;16.57;;;;;;;6.93;100.00;95169.13;4988700;28;20577;-79
2022/04/25 01:00:18;;;;;;;22.03;15.90;;;;;;;6.94;100.00;95168.16;4983388;28;20040;-80
2022/04/25 01:02:44;;;;;;;22.17;17.87;;;;;;;6.93;100.00;95163.91;4983734;28;21427;-80
2022/04/25 01:05:10;;;;;;;23.03;17.97;;;;;;;6.93;100.00;95164.72;4993804;28;20039;-80
2022/04/25 01:07:37;;;;;;;24.10;17.90;;;;;;;6.90;100.00;95164.22;4993965;28;20052;-79
2022/04/25 01:10:04;;;;;;;23.83;17.57;;;;;;;6.85;100.00;95164.72;4991579;28;20139;-80
2022/04/25 01:12:31;;;;;;;25.23;18.70;;;;;;;6.88;100.00;95168.81;4976336;28;20034;-80
2022/04/25 01:14:59;;;;;;;25.37;19.10;;;;;;;6.85;100.00;95168.16;5013841;28;20033;-80
2022/04/25 01:17:24;;;;;;;21.97;17.20;;;;;;;6.87;100.00;95173.19;4999961;28;20037;-79
2022/04/25 01:19:50;;;;;;;22.27;17.33;;;;;;;6.85;100.00;95181.22;5020867;28;20087;-80
2022/04/25 01:22:21;;;;;;;25.27;19.07;;;;;;;6.82;100.00;95178.94;5023982;28;20036;-80
2022/04/25 01:27:32;;;;;;;22.80;18.30;;;;;;;6.83;100.00;95177.94;5026889;28;20105;-80
2022/04/25 01:29:58;;;;;;;22.37;17.80;;;;;;;6.90;100.00;95179.91;5027854;28;20551;-80
2022/04/25 01:32:24;;;;;;;25.57;19.63;;;;;;;6.78;100.00;95184.66;5023154;28;20501;-80
2022/04/25 01:34:51;;;;;;;23.67;17.90;;;;;;;6.78;100.00;95180.22;5027776;28;20466;-79
2022/04/25 01:37:19;;;;;;;24.27;18.63;;;;;;;6.76;100.00;95189.19;5029475;28;20723;-79
2022/04/25 01:39:48;;;;;;;23.60;17.53;;;;;;;6.83;100.00;95184.97;5017757;28;20034;-80
2022/04/25 01:42:14;;;;;;;25.07;18.90;;;;;;;6.78;100.00;95188.06;5010017;28;20494;-80
2022/04/25 01:44:40;;;;;;;23.80;18.20;;;;;;;6.75;100.00;95185.78;5025079;28;20537;-80
2022/04/25 01:47:06;;;;;;;24.63;18.83;;;;;;;6.73;100.00;95192.94;5028121;28;20021;-80
2022/04/25 01:49:33;;;;;;;22.67;18.00;;;;;;;6.71;100.00;95189.69;5023864;28;20040;-80
2022/04/25 01:52:32;;;;;;;25.93;19.93;;;;;;;6.69;100.00;95191.66;5026541;28;20744;-80
2022/04/25 01:54:59;;;;;;;27.17;20.00;;;;;;;6.66;100.00;95191.97;5023260;28;20045;-80
2022/04/25 01:57:26;;;;;;;28.80;21.57;;;;;;;6.74;100.00;95191.16;5008958;28;20034;-81
2022/04/25 01:59:52;;;;;;;26.33;20.27;;;;;;;6.72;100.00;95185.28;5025735;28;20045;-80
2022/04/25 02:02:18;;;;;;;28.13;21.63;;;;;;;6.71;100.00;95192.31;5024954;28;20025;-80
2022/04/25 02:04:44;;;;;;;28.97;21.13;;;;;;;6.65;100.00;95192.94;5022910;28;20486;-80
2022/04/25 02:07:11;;;;;;;29.13;21.20;;;;;;;6.69;100.00;95194.25;5030745;28;20151;-81
2022/04/25 02:09:38;;;;;;;33.60;23.47;;;;;;;6.71;100.00;95192.31;5030597;28;20120;-80
2022/04/25 02:12:05;;;;;;;30.67;23.53;;;;;;;6.75;100.00;95198.03;5030979;28;20037;-80
2022/04/25 02:14:31;;;;;;;31.23;23.27;;;;;;;6.73;100.00;95192.94;5045469;28;20037;-80
2022/04/25 02:17:00;;;;;;;30.47;23.13;;;;;;;6.77;100.00;95196.91;5051522;28;20036;-80
2022/04/25 02:19:27;;;;;;;32.53;23.67;;;;;;;6.71;100.00;95196.72;5023240;28;20041;-81
2022/04/25 02:21:54;;;;;;;31.13;22.90;;;;;;;6.72;100.00;95199.16;5029862;28;20045;-80
2022/04/25 02:24:20;;;;;;;29.33;22.07;;;;;;;6.67;100.00;95206.66;5031921;28;20029;-80
2022/04/25 02:26:48;;;;;;;30.93;22.50;;;;;;;6.71;100.00;95204.56;5016272;28;20029;-79
2022/04/25 02:29:14;;;;;;;33.17;22.90;;;;;;;6.71;100.00;95210.59;5028630;28;20036;-80
2022/04/25 02:31:40;;;;;;;31.70;22.93;;;;;;;6.76;100.00;95204.88;5031757;28;20036;-80
2022/04/25 02:34:06;;;;;;;30.60;23.67;;;;;;;6.79;100.00;95208.00;5027982;28;20038;-81
2022/04/25 02:36:31;;;;;;;34.03;24.43;;;;;;;6.76;100.00;95207.50;5033121;28;20025;-81
2022/04/25 02:38:57;;;;;;;30.60;22.53;;;;;;;6.79;100.00;95210.59;5030966;28;20040;-81
2022/04/25 02:41:24;;;;;;;31.30;24.07;;;;;;;6.74;100.00;95212.91;5039186;28;20041;-80
2022/04/25 02:43:49;;;;;;;29.60;22.87;;;;;;;6.76;100.00;95216.16;5037404;28;20041;-80
2022/04/25 02:46:16;;;;;;;31.53;23.70;;;;;;;6.76;100.00;95221.38;5031170;28;20041;-80
2022/04/25 02:48:45;;;;;;;35.90;26.20;;;;;;;6.76;100.00;95220.56;5015491;28;20025;-81
2022/04/25 02:51:12;;;;;;;31.40;24.47;;;;;;;6.76;100.00;95226.59;5014963;28;20557;-81
2022/04/25 02:53:39;;;;;;;34.40;25.13;;;;;;;6.77;100.00;95232.63;5029706;28;20168;-81
2022/04/25 02:56:05;;;;;;;34.60;26.67;;;;;;;6.77;100.00;95230.88;5012668;28;20031;-81
2022/04/25 02:58:33;;;;;;;35.37;26.80;;;;;;;6.76;100.00;95231.81;5010249;28;20030;-80
2022/04/25 03:00:59;;;;;;;35.93;27.13;;;;;;;6.74;100.00;95228.56;5028243;28;20033;-81
2022/04/25 03:03:26;;;;;;;32.83;26.77;;;;;;;6.76;100.00;95231.81;5011750;28;20493;-81
2022/04/25 03:05:53;;;;;;;32.13;27.27;;;;;;;6.70;100.00;95236.88;5010216;28;20115;-81
2022/04/25 03:08:22;;;;;;;34.53;27.03;;;;;;;6.73;100.00;95234.75;5008675;28;20613;-81
2022/04/25 03:10:51;;;;;;;33.73;27.37;;;;;;;6.72;100.00;95235.75;5006300;28;20198;-81
2022/04/25 03:13:17;;;;;;;35.57;28.80;;;;;;;6.68;100.00;95242.28;5008797;28;20029;-81
2022/04/25 03:15:44;;;;;;;34.77;27.83;;;;;;;6.72;100.00;95240.97;5016889;28;20042;-81
2022/04/25 03:18:11;;;;;;;38.10;29.00;;;;;;;6.68;100.00;95242.28;5007938;28;20102;-81
2022/04/25 03:20:38;;;;;;;33.13;28.13;;;;;;;6.73;100.00;95247.81;4994129;28;20033;-82
2022/04/25 03:23:05;;;;;;;36.50;29.10;;;;;;;6.70;100.00;95244.72;5009586;28;20666;-81
2022/04/25 03:25:32;;;;;;;37.33;29.40;;;;;;;6.69;100.00;95243.91;5012709;28;20860;-80
2022/04/25 03:27:58;;;;;;;34.60;28.17;;;;;;;6.65;100.00;95250.41;5011723;28;20025;-80
2022/04/25 03:30:24;;;;;;;38.60;31.60;;;;;;;6.61;100.00;95256.94;5010176;28;20116;-82
2022/04/25 03:32:50;;;;;;;36.60;29.90;;;;;;;6.63;100.00;95262.00;5009477;28;20167;-81
2022/04/25 03:35:18;;;;;;;35.67;29.20;;;;;;;6.58;100.00;95260.69;4995479;28;20097;-81
2022/04/25 03:37:45;;;;;;;33.80;27.63;;;;;;;6.59;100.00;95266.72;5011604;28;20402;-82
2022/04/25 03:40:11;;;;;;;45.23;36.27;;;;;;;6.56;100.00;95270.47;5011250;28;20071;-80
2022/04/25 03:42:39;;;;;;;41.03;33.43;;;;;;;6.58;100.00;95271.13;4991817;28;20053;-81
2022/04/25 03:45:09;;;;;;;32.63;27.57;;;;;;;6.57;100.00;95272.13;5011958;28;20109;-81
2022/04/25 03:47:35;;;;;;;34.80;27.73;;;;;;;6.60;100.00;95268.34;5019633;28;20163;-81
2022/04/25 03:50:01;;;;;;;34.57;29.00;;;;;;;6.55;100.00;95281.09;5020229;28;20037;-81
2022/04/25 03:52:28;;;;;;;37.07;29.83;;;;;;;6.55;100.00;95273.25;5029947;28;20037;-81
2022/04/25 03:57:38;;;;;;;34.37;27.27;;;;;;;6.50;100.00;95284.16;5045209;28;20038;-81
2022/04/25 04:00:06;;;;;;;35.03;26.37;;;;;;;6.55;100.00;95286.31;5019377;28;20093;-81
2022/04/25 04:02:37;;;;;;;35.60;29.00;;;;;;;6.46;100.00;95282.03;5038284;28;20038;-81
2022/04/25 04:05:04;;;;;;;32.20;26.90;;;;;;;6.52;100.00;95289.22;5040478;28;20033;-80
2022/04/25 04:07:30;;;;;;;35.27;29.03;;;;;;;6.56;100.00;95298.38;5024223;28;20038;-80
2022/04/25 04:09:56;;;;;;;33.67;26.63;;;;;;;6.47;100.00;95301.94;5027962;28;20425;-80
2022/04/25 04:12:24;;;;;;;43.30;35.23;;;;;;;6.56;100.00;95293.16;5026890;28;20040;-81
2022/04/25 04:14:50;;;;;;;36.73;30.33;;;;;;;6.48;100.00;95295.75;5030132;28;20115;-80
2022/04/25 04:17:17;;;;;;;33.03;27.93;;;;;;;6.44;100.00;95295.25;5027986;28;20029;-80
2022/04/25 04:19:44;;;;;;;30.80;26.60;;;;;;;6.49;100.00;95302.59;5018736;28;20152;-80
2022/04/25 04:22:10;;;;;;;30.37;26.33;;;;;;;6.38;100.00;95309.75;5005131;28;20029;-81
2022/04/25 04:24:36;;;;;;;31.27;25.40;;;;;;;6.33;100.00;95306.75;4990400;28;20547;-81
2022/04/25 04:27:04;;;;;;;31.73;27.17;;;;;;;6.43;100.00;95318.91;4989410;28;20055;-81
2022/04/25 04:29:34;;;;;;;28.97;24.17;;;;;;;6.32;100.00;95323.41;5008243;28;20036;-80
2022/04/25 04:32:05;;;;;;;29.57;25.40;;;;;;;6.29;100.00;95323.72;5007584;28;20079;-81
2022/04/25 04:34:31;;;;;;;29.73;25.23;;;;;;;6.37;100.00;95323.78;5005783;28;20638;-80
2022/04/25 04:36:57;;;;;;;29.03;24.53;;;;;;;6.35;100.00;95332.75;5006277;28;20029;-80
2022/04/25 04:39:23;;;;;;;30.50;25.37;;;;;;;6.37;100.00;95331.63;5012245;28;20029;-81
2022/04/25 04:41:48;;;;;;;33.83;25.63;;;;;;;6.40;100.00;95337.50;5013189;28;20030;-80
2022/04/25 04:44:14;;;;;;;30.07;24.70;;;;;;;6.41;100.00;95333.91;5014266;28;20053;-80
2022/04/25 04:46:41;;;;;;;32.47;26.70;;;;;;;6.47;100.00;95336.72;4997894;28;20049;-80
2022/04/25 04:49:06;;;;;;;32.53;26.47;;;;;;;6.47;100.00;95341.09;5032421;28;20103;-81
2022/04/25 04:51:33;;;;;;;32.03;25.70;;;;;;;6.52;100.00;95344.91;5007320;28;20049;-81
2022/04/25 04:54:02;;;;;;;30.43;25.07;;;;;;;6.46;100.00;95342.91;4990511;28;20103;-79
2022/04/25 04:56:32;;;;;;;32.43;25.90;;;;;;;6.48;100.00;95343.59;4989970;28;20044;-80
2022/04/25 04:58:58;;;;;;;31.83;25.67;;;;;;;6.56;100.00;95350.63;5005435;28;20060;-81
2022/04/25 05:01:26;;;;;;;28.23;24.77;;;;;;;6.53;100.00;95351.75;5005340;28;20044;-80
2022/04/25 05:03:52;;;;;;;32.57;25.33;;;;;;;6.58;100.00;95359.97;5005855;28;20038;-80
2022/04/25 05:06:18;;;;;;;31.50;26.73;;;;;;;6.62;100.00;95365.69;5008867;28;20037;-80
2022/04/25 05:08:43;;;;;;;31.80;25.53;;;;;;;6.61;100.00;95359.66;4992286;28;20026;-80
2022/04/25 05:11:09;;;;;;;32.83;24.23;;;;;;;6.66;100.00;95364.38;5008978;28;20112;-80
2022/04/25 05:13:38;;;;;;;32.00;25.37;;;;;;;6.63;100.00;95366.50;5007183;28;20126;-79
2022/04/25 05:16:04;;;;;;;30.47;25.23;;;;;;;6.66;100.00;95372.22;5006284;28;20033;-80
2022/04/25 05:18:33;;;;;;;31.20;25.63;;;;;;;6.63;100.00;95367.31;5009844;28;20037;-80
2022/04/25 05:21:02;;;;;;;29.77;25.60;;;;;;;6.71;100.00;95372.59;4992331;28;20079;-79
2022/04/25 05:23:28;;;;;;;30.40;24.77;;;;;;;6.75;100.00;95379.13;5006689;28;20425;-80
2022/04/25 05:25:55;;;;;;;30.47;25.07;;;;;;;6.79;100.00;95379.63;5010282;28;22189;-79
2022/04/25 05:28:25;;;;;;;29.43;24.17;;;;;;;6.83;100.00;95384.38;5010823;28;20041;-79
2022/04/25 05:30:51;;;;;;;31.63;26.03;;;;;;;6.85;100.00;95390.28;5003346;28;21202;-80
2022/04/25 05:33:19;;;;;;;26.83;22.17;;;;;;;6.87;100.00;95386.69;4998079;28;20080;-80
2022/04/25 05:35:46;;;;;;;31.33;24.63;;;;;;;6.91;100.00;95393.22;5014575;28;20895;-80
2022/04/25 05:38:12;;;;;;;26.03;22.60;;;;;;;6.99;100.00;95385.44;4998880;28;20069;-80
2022/04/25 05:40:41;;;;;;;29.00;24.63;;;;;;;7.06;100.00;95381.22;5014132;28;20029;-79
2022/04/25 05:43:07;;;;;;;27.30;23.50;;;;;;;7.19;100.00;95388.63;5017912;28;20057;-80
2022/04/25 05:45:33;;;;;;;27.30;23.33;;;;;;;7.35;100.00;95393.06;5019271;28;20033;-80
2022/04/25 05:47:59;;;;;;;26.37;23.40;;;;;;;7.32;100.00;95392.41;5015163;28;20045;-79
2022/04/25 05:53:11;;;;;;;27.60;22.97;;;;;;;7.25;100.00;95395.81;5013027;28;20510;-80
2022/04/25 05:55:37;;;;;;;26.17;21.57;;;;;;;7.36;100.00;95395.53;4997262;28;20047;-80
2022/04/25 05:58:04;;;;;;;26.90;23.33;;;;;;;7.40;100.00;95401.25;4994698;28;20041;-80
2022/04/25 06:00:30;;;;;;;26.30;22.53;;;;;;;7.35;100.00;95399.13;4997422;28;20196;-81
2022/04/25 06:02:57;;;;;;;26.93;22.47;;;;;;;7.56;100.00;95399.47;4995399;28;20492;-78
2022/04/25 06:05:23;;;;;;;25.80;22.67;;;;;;;7.55;100.00;95404.91;5018865;28;20029;-80
2022/04/25 06:07:50;;;;;;;24.53;21.53;;;;;;;8.14;100.00;95402.94;5026221;28;20065;-79
2022/04/25 06:10:18;;;;;;;25.63;21.83;;;;;;;8.44;100.00;95400.66;4991119;28;20033;-79
2022/04/25 06:12:50;;;;;;;22.67;20.13;;;;;;;9.01;100.00;95413.63;5008676;28;20695;-79
2022/04/25 06:15:17;;;;;;;25.27;20.97;;;;;;;8.97;100.00;95417.56;5006252;28;20115;-80
2022/04/25 06:17:43;;;;;;;23.33;19.40;;;;;;;8.87;100.00;95417.75;5005048;28;20440;-80
2022/04/25 06:20:10;;;;;;;25.00;21.10;;;;;;;8.62;100.00;95424.06;5008886;28;20033;-79
2022/04/25 06:22:37;;;;;;;25.67;21.20;;;;;;;8.63;100.00;95420.47;5003358;28;20048;-80
2022/04/25 06:25:04;;;;;;;24.00;19.87;;;;;;;8.27;100.00;95426.84;5000873;28;20041;-79
2022/04/25 06:27:30;;;;;;;23.33;20.83;;;;;;;8.05;100.00;95427.53;5019207;28;20037;-80
2022/04/25 06:29:56;;;;;;;24.37;20.47;;;;;;;7.73;100.00;95434.34;5021084;28;20056;-80
2022/04/25 06:32:23;;;;;;;29.53;22.00;;;;;;;7.87;100.00;95437.31;5008632;28;20037;-80
2022/04/25 06:34:48;;;;;;;26.03;22.30;;;;;;;7.93;100.00;95436.66;5015862;28;20646;-79
2022/04/25 06:37:14;;;;;;;27.77;23.47;;;;;;;8.67;100.00;95432.25;5008437;28;20037;-79
2022/04/25 06:39:40;;;;;;;26.97;19.97;;;;;;;8.57;100.00;95442.91;4998687;28;20033;-79
2022/04/25 06:42:08;;;;;;;42.57;34.43;;;;;;;8.94;100.00;95442.31;5012736;28;20045;-79
2022/04/25 06:44:33;;;;;;;24.93;21.50;;;;;;;9.66;100.00;95444.81;5014681;28;20105;-79
2022/04/25 06:46:59;;;;;;;19.23;16.33;;;;;;;9.06;100.00;95441.97;5011617;28;20743;-79
2022/04/25 06:49:25;;;;;;;19.67;15.67;;;;;;;9.53;100.00;95441.94;5008598;28;20465;-79
2022/04/25 06:51:58;;;;;;;25.57;20.73;;;;;;;9.10;100.00;95444.09;5007745;28;20025;-80
2022/04/25 06:54:25;;;;;;;25.30;20.10;;;;;;;10.37;100.00;95442.06;5008270;28;20154;-79
2022/04/25 06:56:52;;;;;;;18.27;15.93;;;;;;;11.09;100.00;95436.25;5009188;28;20069;-79
2022/04/25 06:59:19;;;;;;;18.00;14.87;;;;;;;11.63;100.00;95427.19;5009105;28;20025;-79
2022/04/25 07:01:46;;;;;;;15.17;13.17;;;;;;;12.32;100.00;95435.44;5003000;28;20091;-80
2022/04/25 07:04:12;;;;;;;15.10;12.50;;;;;;;11.74;100.00;95440.72;5008079;28;20094;-79
2022/04/25 07:06:39;;;;;;;13.23;11.23;;;;;;;11.59;100.00;95434.66;4999617;28;20025;-80
2022/04/25 07:09:06;;;;;;;12.80;11.13;;;;;;;12.45;100.00;95435.53;5021584;28;20091;-80
2022/04/25 07:11:33;;;;;;;13.60;10.40;;;;;;;12.48;100.00;95421.16;5024694;28;20051;-80
2022/04/25 07:13:59;;;;;;;12.13;10.37;;;;;;;13.05;100.00;95424.59;5021785;28;20037;-80
2022/04/25 07:16:26;;;;;;;11.50;10.30;;;;;;;12.76;100.00;95423.81;5022149;28;20048;-79
2022/04/25 07:18:51;;;;;;;12.50;11.13;;;;;;;11.50;100.00;95426.06;5005326;28;20025;-80
2022/04/25 07:29:32;;;;;;;13.80;10.47;;;;;;;10.76;100.00;95430.50;5013504;28;20025;-80
2022/04/25 07:31:58;;;;;;;11.80;10.03;;;;;;;11.28;100.00;95433.06;5016705;28;20036;-79
2022/04/25 07:34:24;;;;;;;12.47;10.87;;;;;;;12.54;100.00;95425.69;5017668;28;20180;-80
2022/04/25 07:36:52;;;;;;;11.50;10.30;;;;;;;12.22;100.00;95427.03;5019556;28;20117;-80
2022/04/25 07:39:19;;;;;;;12.87;10.90;;;;;;;13.24;94.81;95426.53;5003041;28;20537;-80
2022/04/25 07:41:46;;;;;;;12.77;9.80;;;;;;;13.68;94.13;95428.78;5003435;28;20105;-80
2022/04/25 07:44:11;;;;;;;9.83;8.67;;;;;;;13.76;86.52;95430.44;5021362;28;20093;-80
2022/04/25 07:46:40;;;;;;;11.93;10.13;;;;;;;13.96;83.86;95435.78;5022070;28;20383;-80
2022/04/25 07:49:07;;;;;;;12.07;9.30;;;;;;;14.05;83.86;95444.31;5020453;28;20406;-80
2022/04/25 07:51:33;;;;;;;9.80;8.50;;;;;;;13.41;89.08;95437.59;5027829;28;20102;-80
2022/04/25 07:53:58;;;;;;;8.98;7.55;;;;;;;14.47;83.48;95429.94;5028702;28;20056;-80
2022/04/25 07:56:26;;;;;;;9.45;7.93;;;;;;;14.66;79.42;95436.28;5025409;28;20112;-80
2022/04/25 07:58:52;;;;;;;10.63;7.70;;;;;;;14.51;83.72;95440.97;5021915;28;20112;-81
2022/04/25 08:01:17;;;;;;;9.23;7.50;;;;;;;15.12;77.19;95438.06;5028624;28;20057;-81
2022/04/25 08:03:43;;;;;;;9.30;7.20;;;;;;;15.57;72.20;95440.81;5013689;28;20084;-80
2022/04/25 08:06:11;;;;;;;7.88;5.82;;;;;;;16.20;64.18;95440.13;5012366;28;20040;-80
2022/04/25 08:08:37;;;;;;;8.07;6.40;;;;;;;16.17;60.82;95446.66;5027489;28;20021;-81
2022/04/25 08:11:03;;;;;;;6.70;5.38;;;;;;;15.93;62.44;95452.72;5029568;28;20505;-81
2022/04/25 08:18:58;;;;;;;7.53;6.05;;;;;;;14.42;68.05;95466.78;5029883;28;20096;-81
2022/04/25 08:21:24;;;;;;;9.23;7.30;;;;;;;14.70;75.87;95463.97;5033663;28;20053;-81
2022/04/25 08:23:50;;;;;;;7.60;6.55;;;;;;;15.88;66.67;95456.00;5031644;28;20498;-81
2022/04/25 08:26:16;;;;;;;9.10;7.63;;;;;;;17.05;56.52;95451.13;5015439;28;20029;-81
2022/04/25 08:28:41;;;;;;;9.07;6.90;;;;;;;16.44;57.11;95459.75;5035046;28;20390;-81
2022/04/25 08:31:09;;;;;;;7.78;6.38;;;;;;;16.64;56.58;95460.44;5032695;28;20390;-82
2022/04/25 08:33:36;;;;;;;8.25;6.65;;;;;;;16.22;61.32;95465.38;5034240;28;20072;-81
2022/04/25 08:36:03;;;;;;;7.05;5.72;;;;;;;16.21;57.04;95458.47;5037485;28;20033;-81
2022/04/25 08:38:29;;;;;;;7.15;5.80;;;;;;;17.38;55.19;95455.31;5047783;28;20049;-82
2022/04/25 08:40:55;;;;;;;7.63;6.53;;;;;;;16.72;56.45;95462.81;5026453;28;20068;-81
2022/04/25 08:43:21;;;;;;;7.45;5.95;;;;;;;18.25;50.54;95460.41;5017967;28;20045;-82
2022/04/25 08:45:46;;;;;;;6.82;5.15;;;;;;;18.24;51.04;95448.97;5021401;28;20040;-81
2022/04/25 08:48:13;;;;;;;7.63;5.80;;;;;;;18.49;50.87;95459.44;5038459;28;20060;-82
2022/04/25 08:50:41;;;;;;;7.50;6.10;;;;;;;17.84;50.89;95467.28;5021650;28;20036;-81
2022/04/25 08:53:07;;;;;;;6.50;5.10;;;;;;;18.45;50.08;95458.28;5046669;28;20060;-83
2022/04/25 08:55:33;;;;;;;6.45;5.28;;;;;;;18.43;49.99;95460.34;5038305;28;20119;-81
2022/04/25 08:58:02;;;;;;;6.35;5.07;;;;;;;16.92;50.82;95469.84;5035380;28;20036;-81
2022/04/25 09:00:28;;;;;;;6.70;5.28;;;;;;;16.40;53.53;95469.19;5030725;28;20037;-80
2022/04/25 09:02:54;;;;;;;6.75;4.85;;;;;;;15.93;59.37;95468.63;5035326;28;20056;-81
2022/04/25 09:05:21;;;;;;;6.28;4.55;;;;;;;14.98;59.31;95479.63;5032791;28;20792;-80
2022/04/25 09:07:47;;;;;;;6.93;5.68;;;;;;;15.11;59.94;95480.66;5013652;28;20124;-82
2022/04/25 09:10:15;;;;;;;8.10;6.20;;;;;;;14.73;61.62;95470.69;5033325;28;20060;-80
2022/04/25 09:12:42;;;;;;;7.00;5.75;;;;;;;14.75;61.94;95480.03;5002755;28;21340;-81
2022/04/25 09:15:09;;;;;;;7.80;5.53;;;;;;;14.63;63.20;95478.22;5022007;28;20390;-82
2022/04/25 09:17:38;;;;;;;7.00;5.40;;;;;;;13.98;65.60;95486.59;5022880;28;20597;-82
2022/04/25 09:20:09;;;;;;;6.90;5.45;;;;;;;13.89;68.01;95479.88;5000473;28;21106;-82
2022/04/25 09:22:39;;;;;;;8.50;5.25;;;;;;;14.21;66.93;95488.91;5020344;28;20526;-82
2022/04/25 09:25:07;;;;;;;6.47;4.95;;;;;;;14.25;66.63;95481.38;5021207;28;20037;-80
2022/04/25 09:27:34;;;;;;;7.60;5.03;;;;;;;14.04;65.09;95480.53;5020966;28;20320;-79
2022/04/25 09:30:22;;;;;;;5.57;3.88;;;;;;;13.72;63.38;95487.34;5020718;28;20036;-81
2022/04/25 09:32:52;;;;;;;6.65;4.47;;;;;;;13.48;67.37;95486.00;5018412;28;20033;-80
2022/04/25 09:35:37;;;;;;;5.30;4.00;;;;;;;13.95;68.58;95492.31;5019680;28;20052;-81
2022/04/25 09:38:08;;;;;;;6.00;4.32;;;;;;;13.94;66.94;95503.06;5018823;28;20372;-80
2022/04/25 09:40:36;;;;;;;8.07;5.22;;;;;;;13.70;72.10;95489.34;5023929;28;20485;-80
2022/04/25 09:43:08;;;;;;;6.80;5.38;;;;;;;13.65;72.45;95494.44;5032015;28;20037;-82
2022/04/25 09:45:40;;;;;;;7.82;4.68;;;;;;;13.63;71.42;95496.44;5030879;28;20041;-81
2022/04/25 09:48:16;;;;;;;6.93;4.68;;;;;;;14.17;65.42;95492.16;5029719;28;20041;-80
2022/04/25 09:50:44;;;;;;;6.43;5.00;;;;;;;13.94;67.31;95495.13;5028296;28;20033;-81
2022/04/25 09:53:10;;;;;;;7.25;4.95;;;;;;;13.09;69.93;95497.13;5025904;28;20059;-80
2022/04/25 09:55:39;;;;;;;6.68;5.03;;;;;;;13.87;68.67;95501.22;5027694;28;20033;-81
2022/04/25 09:58:20;;;;;;;6.88;5.03;;;;;;;14.10;66.41;95500.88;5030892;28;20033;-80
2022/04/25 10:00:47;;;;;;;6.53;4.75;;;;;;;14.13;64.71;95499.69;5029108;28;20033;-81
2022/04/25 10:03:16;;;;;;;6.30;5.10;;;;;;;15.11;62.88;95502.66;5029421;28;20026;-81
2022/04/25 10:05:48;;;;;;;5.97;4.13;;;;;;;15.52;57.20;95501.53;5030540;28;20076;-81
2022/04/25 10:08:16;;;;;;;6.40;4.10;;;;;;;14.98;59.83;95498.16;5025394;28;20033;-81
2022/04/25 10:11:03;;;;;;;7.03;4.90;;;;;;;15.07;61.55;95501.44;5029023;28;20029;-81
2022/04/25 10:13:32;;;;;;;6.32;4.60;;;;;;;14.35;63.39;95509.09;5026131;28;20035;-80
2022/04/25 10:15:58;;;;;;;7.55;5.75;;;;;;;14.13;64.84;95510.25;5027130;28;20117;-80
2022/04/25 10:18:26;;;;;;;7.47;4.82;;;;;;;13.79;67.58;95519.88;5028026;28;20079;-80
2022/04/25 10:20:52;;;;;;;7.22;5.45;;;;;;;14.38;66.78;95508.69;5029796;28;20037;-80
2022/04/25 10:23:18;;;;;;;6.88;5.00;;;;;;;14.70;69.94;95503.66;5006465;28;20033;-80
2022/04/25 10:25:50;;;;;;;6.85;5.35;;;;;;;14.50;68.13;95510.75;5027658;28;20033;-81
2022/04/25 10:28:50;;;;;;;7.07;5.57;;;;;;;14.37;67.12;95511.53;5028686;28;20100;-81
2022/04/25 10:31:30;;;;;;;8.73;5.18;;;;;;;14.48;70.32;95515.41;5030854;28;20136;-80
2022/04/25 10:34:02;;;;;;;6.35;4.90;;;;;;;14.98;63.58;95514.06;5043156;28;20048;-80
2022/04/25 10:36:39;;;;;;;6.65;4.68;;;;;;;14.64;67.79;95519.53;5026654;28;20570;-81
2022/04/25 10:39:27;;;;;;;6.55;4.43;;;;;;;14.98;68.06;95513.25;5028979;28;20036;-81
2022/04/25 10:44:37;;;;;;;6.00;4.22;;;;;;;15.05;66.52;95516.69;5027324;28;20033;-81
2022/04/25 10:47:06;;;;;;;6.05;4.35;;;;;;;14.44;68.30;95522.13;5026270;28;20036;-80
2022/04/25 10:49:42;;;;;;;7.63;5.05;;;;;;;14.58;68.57;95523.81;5029414;28;20121;-80
2022/04/25 10:52:33;;;;;;;6.68;4.35;;;;;;;14.12;68.55;95521.84;5027586;28;20017;-81
2022/04/25 10:55:34;;;;;;;7.38;5.10;;;;;;;14.24;66.27;95519.44;5000764;28;20069;-81
2022/04/25 10:58:03;;;;;;;6.82;4.82;;;;;;;14.56;66.43;95518.72;5026598;28;20452;-81
2022/04/25 11:00:39;;;;;;;7.20;4.93;;;;;;;15.68;61.43;95509.09;5009420;28;20040;-81
2022/04/25 11:03:15;;;;;;;6.50;3.88;;;;;;;17.57;56.18;95504.78;5028366;28;20083;-80
2022/04/25 11:05:52;;;;;;;6.93;4.78;;;;;;;17.56;53.03;95505.81;5014833;28;20037;-81
2022/04/25 11:08:23;;;;;;;8.52;4.32;;;;;;;18.50;49.90;95506.31;5031440;28;20025;-80
2022/04/25 11:10:57;;;;;;;6.68;4.30;;;;;;;17.31;52.50;95500.56;5030974;28;20041;-81
2022/04/25 11:13:26;;;;;;;5.95;4.15;;;;;;;17.22;50.30;95509.81;5031686;28;20104;-81
2022/04/25 11:15:57;;;;;;;6.47;4.10;;;;;;;16.66;51.62;95514.09;5028556;28;20018;-81
2022/04/25 11:18:33;;;;;;;5.38;3.90;;;;;;;16.21;53.75;95516.81;5044668;28;20044;-81
2022/04/25 11:21:13;;;;;;;21.27;16.52;;;;;;;15.46;53.92;95519.13;5014512;28;20124;-80
2022/04/25 11:23:44;;;;;;;4.90;3.70;;;;;;;16.86;53.29;95515.84;5029346;28;20655;-81
2022/04/25 11:26:22;;;;;;;4.97;3.60;;;;;;;17.80;49.80;95509.47;5031252;28;20033;-81
2022/04/25 11:29:04;;;;;;;5.22;3.75;;;;;;;18.31;47.91;95510.91;5040969;28;20017;-82
2022/04/25 11:31:31;;;;;;;5.75;3.53;;;;;;;17.38;48.62;95511.13;5054780;28;20041;-81
2022/04/25 11:34:02;;;;;;;5.28;3.47;;;;;;;17.60;49.67;95508.84;5009536;28;20092;-80
2022/04/25 11:36:29;;;;;;;6.32;3.53;;;;;;;17.73;46.18;95513.19;5026875;28;20068;-80
2022/04/25 11:41:41;;;;;;;7.93;3.72;;;;;;;16.45;48.71;95527.72;5043243;28;20037;-80
2022/04/25 11:44:08;;;;;;;4.63;2.90;;;;;;;17.14;46.67;95518.09;5044677;28;20102;-81
2022/04/25 11:46:36;;;;;;;4.78;3.50;;;;;;;17.89;47.63;95523.28;5029373;28;20064;-79
2022/04/25 11:49:03;;;;;;;5.97;3.83;;;;;;;18.11;46.22;95521.81;5027990;28;20037;-80
2022/04/25 11:51:31;;;;;;;5.10;3.50;;;;;;;16.44;46.83;95518.94;5032787;28;20037;-82
2022/04/25 11:54:00;;;;;;;4.35;3.40;;;;;;;16.88;47.45;95529.72;5042723;28;20095;-82